Time;durP1;ratioP1;P1;durP2;ratioP2;P2;SDS_P1;SDS_P2;PMS_P1;PMS_P2;Temp;Humidity;BMP_temperature;BMP_pressure;BME280_temperature;BME280_humidity;BME280_pressure;Samples;Min_cycle;Max_cycle;Signal;HPM_P1;HPM_P2
2022/05/09 00:01:43;;;;;;;;;;;15.60;65.30;;;;;;5059372;28;20042;-58
2022/05/09 00:04:08;;;;;;;;;;;15.60;66.00;;;;;;5059617;28;19904;-58
2022/05/09 00:06:34;;;;;;;;;;;15.50;66.20;;;;;;5059233;28;19912;-58
2022/05/09 00:09:00;;;;;;;;;;;15.50;65.80;;;;;;5059566;28;19947;-57
2022/05/09 00:11:25;;;;;;;;;;;15.50;65.00;;;;;;5059325;28;19971;-58
2022/05/09 00:13:52;;;;;;;;;;;15.40;66.80;;;;;;5059176;28;19927;-58
2022/05/09 00:16:18;;;;;;;;;;;15.40;67.20;;;;;;5059318;28;19905;-58
2022/05/09 00:18:43;;;;;;;;;;;15.40;66.30;;;;;;5059123;28;20491;-58
2022/05/09 00:21:09;;;;;;;;;;;15.40;65.80;;;;;;5059273;28;19904;-58
2022/05/09 00:23:35;;;;;;;;;;;15.40;66.10;;;;;;5058922;28;19999;-57
2022/05/09 00:26:01;;;;;;;;;;;15.30;67.70;;;;;;5058853;28;19916;-58
2022/05/09 00:28:27;;;;;;;;;;;15.30;69.10;;;;;;5059391;28;19905;-58
2022/05/09 00:30:54;;;;;;;;;;;15.30;66.70;;;;;;5058621;28;19905;-58
2022/05/09 00:33:20;;;;;;;;;;;15.20;66.80;;;;;;5058695;28;19951;-58
2022/05/09 00:35:46;;;;;;;;;;;15.20;67.50;;;;;;5058786;28;19904;-58
2022/05/09 00:38:11;;;;;;;;;;;15.20;68.90;;;;;;5058683;28;19905;-58
2022/05/09 00:40:38;;;;;;;;;;;15.20;69.40;;;;;;5058422;28;19962;-58
2022/05/09 00:43:23;;;;;;;;;;;15.20;66.50;;;;;;5058784;28;19999;-58
2022/05/09 00:45:49;;;;;;;;;;;15.10;67.20;;;;;;5058839;28;20046;-58
2022/05/09 00:48:15;;;;;;;;;;;15.10;67.90;;;;;;5058751;28;19917;-57
2022/05/09 00:50:41;;;;;;;;;;;15.10;67.70;;;;;;5058370;28;20388;-58
2022/05/09 00:53:07;;;;;;;;;;;15.00;69.00;;;;;;5058705;28;20323;-58
2022/05/09 00:55:46;;;;;;;;;;;15.00;66.90;;;;;;5058616;28;19905;-58
2022/05/09 00:58:17;;;;;;;;;;;15.00;67.30;;;;;;5058392;28;19911;-58
2022/05/09 01:00:45;;;;;;;;;;;15.00;67.90;;;;;;5058067;28;19905;-58
2022/05/09 01:03:20;;;;;;;;;;;15.00;67.90;;;;;;5058464;28;19909;-58
2022/05/09 01:05:50;;;;;;;;;;;14.90;66.30;;;;;;5058266;28;19905;-58
2022/05/09 01:08:19;;;;;;;;;;;14.90;69.30;;;;;;5058354;28;19988;-57
2022/05/09 01:10:45;;;;;;;;;;;14.90;69.60;;;;;;5058475;28;19920;-58
2022/05/09 01:13:12;;;;;;;;;;;14.90;70.50;;;;;;5058014;28;20261;-58
2022/05/09 01:15:38;;;;;;;;;;;14.90;68.50;;;;;;5057972;28;19927;-58
2022/05/09 01:18:06;;;;;;;;;;;14.90;69.10;;;;;;5058017;28;20356;-58
2022/05/09 01:20:32;;;;;;;;;;;14.80;69.60;;;;;;5057791;28;19905;-58
2022/05/09 01:22:57;;;;;;;;;;;14.80;69.60;;;;;;5058198;28;19932;-58
2022/05/09 01:25:23;;;;;;;;;;;14.80;69.10;;;;;;5057739;28;19913;-58
2022/05/09 01:27:49;;;;;;;;;;;14.80;69.80;;;;;;5058105;28;19911;-58
2022/05/09 01:30:19;;;;;;;;;;;14.70;71.10;;;;;;5057955;28;19905;-58
2022/05/09 01:32:55;;;;;;;;;;;14.70;71.00;;;;;;5057657;28;19916;-58
2022/05/09 01:35:28;;;;;;;;;;;14.70;70.50;;;;;;5057835;28;19905;-58
2022/05/09 01:38:02;;;;;;;;;;;14.70;70.50;;;;;;5057849;28;19935;-58
2022/05/09 01:40:28;;;;;;;;;;;14.70;72.20;;;;;;5057970;28;19905;-58
2022/05/09 01:42:54;;;;;;;;;;;14.60;70.60;;;;;;5057721;28;19912;-58
2022/05/09 01:45:20;;;;;;;;;;;14.60;69.20;;;;;;5057878;28;19911;-58
2022/05/09 01:50:29;;;;;;;;;;;14.60;69.90;;;;;;5057531;28;19912;-57
2022/05/09 01:52:55;;;;;;;;;;;14.60;71.90;;;;;;5056302;28;19908;-58
2022/05/09 01:55:21;;;;;;;;;;;14.50;72.20;;;;;;5057785;28;19987;-58
2022/05/09 01:57:49;;;;;;;;;;;14.50;71.50;;;;;;5058003;28;19943;-58
2022/05/09 02:00:15;;;;;;;;;;;14.50;70.50;;;;;;5057766;28;19954;-58
2022/05/09 02:02:40;;;;;;;;;;;14.50;72.70;;;;;;5057480;28;19905;-58
2022/05/09 02:05:06;;;;;;;;;;;14.50;71.80;;;;;;5057890;28;20287;-58
2022/05/09 02:07:32;;;;;;;;;;;14.50;69.50;;;;;;5057868;28;19912;-58
2022/05/09 02:09:58;;;;;;;;;;;14.50;71.40;;;;;;5057708;28;19932;-58
2022/05/09 02:12:24;;;;;;;;;;;14.50;70.10;;;;;;5061272;28;19909;-58
2022/05/09 02:14:50;;;;;;;;;;;14.50;70.00;;;;;;5061669;28;20263;-58
2022/05/09 02:17:15;;;;;;;;;;;14.50;70.40;;;;;;5061347;28;19992;-58
2022/05/09 02:19:41;;;;;;;;;;;14.50;70.40;;;;;;5061083;28;19974;-58
2022/05/09 02:22:08;;;;;;;;;;;14.40;72.20;;;;;;5061886;28;19905;-58
2022/05/09 02:24:34;;;;;;;;;;;14.50;70.80;;;;;;5061054;28;20434;-58
2022/05/09 02:27:00;;;;;;;;;;;14.50;70.70;;;;;;5061008;28;19920;-58
2022/05/09 02:29:26;;;;;;;;;;;14.40;71.60;;;;;;5061203;28;19905;-58
2022/05/09 02:31:51;;;;;;;;;;;14.40;71.00;;;;;;5061050;28;19937;-57
2022/05/09 02:34:17;;;;;;;;;;;14.40;70.80;;;;;;5060807;28;19916;-58
2022/05/09 02:36:42;;;;;;;;;;;14.40;71.20;;;;;;5061424;28;19912;-58
2022/05/09 02:39:08;;;;;;;;;;;14.40;71.10;;;;;;5061137;28;19905;-58
2022/05/09 02:41:34;;;;;;;;;;;14.30;71.20;;;;;;5061393;28;19904;-58
2022/05/09 02:43:59;;;;;;;;;;;14.30;70.40;;;;;;5061051;28;19909;-58
2022/05/09 02:46:26;;;;;;;;;;;14.30;71.00;;;;;;5060980;28;20272;-58
2022/05/09 02:48:51;;;;;;;;;;;14.30;69.00;;;;;;5060611;28;20367;-58
2022/05/09 02:51:17;;;;;;;;;;;14.20;71.50;;;;;;5060480;28;19909;-57
2022/05/09 02:53:43;;;;;;;;;;;14.20;71.50;;;;;;5060727;28;19911;-58
2022/05/09 02:56:10;;;;;;;;;;;14.20;70.50;;;;;;5060756;28;19924;-58
2022/05/09 02:58:35;;;;;;;;;;;14.20;70.20;;;;;;5060359;28;19948;-58
2022/05/09 03:01:01;;;;;;;;;;;14.20;70.90;;;;;;5060577;28;19904;-58
2022/05/09 03:06:11;;;;;;;;;;;14.10;72.10;;;;;;5060512;28;19928;-58
2022/05/09 03:08:37;;;;;;;;;;;14.00;71.70;;;;;;5060330;28;19904;-58
2022/05/09 03:11:02;;;;;;;;;;;14.10;72.00;;;;;;5060365;28;20056;-57
2022/05/09 03:13:28;;;;;;;;;;;14.10;71.60;;;;;;5060054;28;19951;-58
2022/05/09 03:15:54;;;;;;;;;;;14.00;74.00;;;;;;5060188;28;19911;-58
2022/05/09 03:18:25;;;;;;;;;;;14.00;72.60;;;;;;5060361;28;19912;-57
2022/05/09 03:20:54;;;;;;;;;;;13.90;74.10;;;;;;5060235;28;19912;-57
2022/05/09 03:23:19;;;;;;;;;;;14.00;72.50;;;;;;5059203;28;19905;-58
2022/05/09 03:25:45;;;;;;;;;;;13.90;72.90;;;;;;5060005;28;19917;-58
2022/05/09 03:28:12;;;;;;;;;;;13.90;73.40;;;;;;5060068;28;20400;-58
2022/05/09 03:30:38;;;;;;;;;;;13.90;72.80;;;;;;5059994;28;20299;-58
2022/05/09 03:33:06;;;;;;;;;;;13.90;72.90;;;;;;5059906;28;19909;-58
2022/05/09 03:35:32;;;;;;;;;;;13.90;74.10;;;;;;5060148;28;19931;-58
2022/05/09 03:37:57;;;;;;;;;;;13.90;73.40;;;;;;5060005;28;19908;-58
2022/05/09 03:40:23;;;;;;;;;;;13.80;74.40;;;;;;5059749;28;19906;-58
2022/05/09 03:42:49;;;;;;;;;;;13.80;74.30;;;;;;5059896;28;20392;-58
2022/05/09 03:45:15;;;;;;;;;;;13.80;74.10;;;;;;5059475;28;19905;-58
2022/05/09 03:47:41;;;;;;;;;;;13.80;72.50;;;;;;5059560;28;19951;-58
2022/05/09 03:50:08;;;;;;;;;;;13.80;71.90;;;;;;5059882;28;19939;-58
2022/05/09 03:52:34;;;;;;;;;;;13.80;74.20;;;;;;5059650;28;19959;-58
2022/05/09 03:54:59;;;;;;;;;;;13.80;74.60;;;;;;5059621;28;19904;-58
2022/05/09 03:57:25;;;;;;;;;;;13.80;72.10;;;;;;5059643;28;19911;-57
2022/05/09 03:59:51;;;;;;;;;;;13.80;72.50;;;;;;5058123;28;19912;-58
2022/05/09 04:02:16;;;;;;;;;;;13.80;71.20;;;;;;5059540;28;20125;-58
2022/05/09 04:04:42;;;;;;;;;;;13.80;71.00;;;;;;5059787;28;19948;-58
2022/05/09 04:07:08;;;;;;;;;;;13.80;70.50;;;;;;5059543;28;20253;-58
2022/05/09 04:09:34;;;;;;;;;;;13.80;71.60;;;;;;5059767;28;19904;-58
2022/05/09 04:11:59;;;;;;;;;;;13.70;71.20;;;;;;5059196;28;20271;-58
2022/05/09 04:17:10;;;;;;;;;;;13.70;71.70;;;;;;5059172;28;19927;-57
2022/05/09 04:19:36;;;;;;;;;;;13.70;72.90;;;;;;5059276;28;19904;-58
2022/05/09 04:22:02;;;;;;;;;;;13.60;70.60;;;;;;5058842;28;20383;-58
2022/05/09 04:24:31;;;;;;;;;;;13.60;71.80;;;;;;5059064;28;19904;-58
2022/05/09 04:26:57;;;;;;;;;;;13.70;72.00;;;;;;5058772;28;20262;-58
2022/05/09 04:29:22;;;;;;;;;;;13.70;72.20;;;;;;5057443;28;19911;-58
2022/05/09 04:31:48;;;;;;;;;;;13.60;71.10;;;;;;5058785;28;19909;-58
2022/05/09 04:34:14;;;;;;;;;;;13.60;73.30;;;;;;5057880;28;19911;-58
2022/05/09 04:36:41;;;;;;;;;;;13.60;72.00;;;;;;5058677;28;19931;-58
2022/05/09 04:39:06;;;;;;;;;;;13.60;72.50;;;;;;5059021;28;19904;-58
2022/05/09 04:41:32;;;;;;;;;;;13.60;72.20;;;;;;5058807;28;19905;-58
2022/05/09 04:43:59;;;;;;;;;;;13.60;70.40;;;;;;5058669;28;19913;-58
2022/05/09 04:46:25;;;;;;;;;;;13.60;71.30;;;;;;5058749;28;19912;-58
2022/05/09 04:48:50;;;;;;;;;;;13.50;72.10;;;;;;5058991;28;19905;-58
2022/05/09 04:51:16;;;;;;;;;;;13.50;71.40;;;;;;5059225;28;19964;-58
2022/05/09 04:53:42;;;;;;;;;;;13.50;71.90;;;;;;5058412;28;19904;-57
2022/05/09 04:56:08;;;;;;;;;;;13.50;71.10;;;;;;5058582;28;19999;-57
2022/05/09 04:58:33;;;;;;;;;;;13.50;70.50;;;;;;5058575;28;19905;-58
2022/05/09 05:00:59;;;;;;;;;;;13.50;70.40;;;;;;5058085;28;19904;-58
2022/05/09 05:03:25;;;;;;;;;;;13.50;72.30;;;;;;5058264;28;20355;-57
2022/05/09 05:05:54;;;;;;;;;;;13.50;72.20;;;;;;5058502;28;19905;-58
2022/05/09 05:08:20;;;;;;;;;;;13.50;71.80;;;;;;5058124;28;20044;-58
2022/05/09 05:10:45;;;;;;;;;;;13.50;73.00;;;;;;5058187;28;19954;-58
2022/05/09 05:13:12;;;;;;;;;;;13.50;71.70;;;;;;5058194;28;19908;-57
2022/05/09 05:15:38;;;;;;;;;;;13.50;71.60;;;;;;5057877;28;19909;-57
2022/05/09 05:18:04;;;;;;;;;;;13.50;71.50;;;;;;5058046;28;20046;-58
2022/05/09 05:20:30;;;;;;;;;;;13.50;73.00;;;;;;5058343;28;19905;-58
2022/05/09 05:22:56;;;;;;;;;;;13.50;72.30;;;;;;5057884;28;19905;-57
2022/05/09 05:25:23;;;;;;;;;;;13.50;71.20;;;;;;5058077;28;19920;-58
2022/05/09 05:27:48;;;;;;;;;;;13.50;72.30;;;;;;5058068;28;19904;-58
2022/05/09 05:30:14;;;;;;;;;;;13.50;73.20;;;;;;5057751;28;19912;-58
2022/05/09 05:32:41;;;;;;;;;;;13.50;72.90;;;;;;5057714;28;19908;-58
2022/05/09 05:35:16;;;;;;;;;;;13.60;71.30;;;;;;5057846;28;19909;-58
2022/05/09 05:37:42;;;;;;;;;;;13.60;72.10;;;;;;5057862;28;19905;-58
2022/05/09 05:40:09;;;;;;;;;;;13.60;72.30;;;;;;5057771;28;19912;-58
2022/05/09 05:42:36;;;;;;;;;;;13.70;71.90;;;;;;5058451;28;19911;-58
2022/05/09 05:45:02;;;;;;;;;;;13.70;71.20;;;;;;5057597;28;20385;-58
2022/05/09 05:47:28;;;;;;;;;;;13.70;74.40;;;;;;5057518;28;20002;-58
2022/05/09 05:49:54;;;;;;;;;;;13.70;72.60;;;;;;5057543;28;19999;-58
2022/05/09 05:52:20;;;;;;;;;;;13.80;73.50;;;;;;5057719;28;20000;-58
2022/05/09 05:54:45;;;;;;;;;;;13.80;72.70;;;;;;5058045;28;19955;-58
2022/05/09 05:57:17;;;;;;;;;;;13.90;74.20;;;;;;5057767;28;19904;-58
2022/05/09 05:59:49;;;;;;;;;;;13.90;72.70;;;;;;5057740;28;20635;-58
2022/05/09 06:02:14;;;;;;;;;;;14.00;73.70;;;;;;5057583;28;19936;-57
2022/05/09 06:04:40;;;;;;;;;;;14.00;73.00;;;;;;5057731;28;19912;-58
2022/05/09 06:07:05;;;;;;;;;;;14.10;74.10;;;;;;5057741;28;20003;-58
2022/05/09 06:09:31;;;;;;;;;;;14.20;72.40;;;;;;5057652;28;20276;-58
2022/05/09 06:11:56;;;;;;;;;;;14.20;73.10;;;;;;5057536;28;19916;-58
2022/05/09 06:14:22;;;;;;;;;;;14.30;72.30;;;;;;5057427;28;19958;-58
2022/05/09 06:16:48;;;;;;;;;;;14.40;74.60;;;;;;5057549;28;19920;-58
2022/05/09 06:19:13;;;;;;;;;;;14.40;73.00;;;;;;5057342;28;19912;-58
2022/05/09 06:21:39;;;;;;;;;;;14.50;72.80;;;;;;5057596;28;19905;-58
2022/05/09 06:24:05;;;;;;;;;;;14.60;72.10;;;;;;5057288;28;19996;-57
2022/05/09 06:26:31;;;;;;;;;;;14.60;71.60;;;;;;5057186;28;19917;-58
2022/05/09 06:28:59;;;;;;;;;;;14.70;74.10;;;;;;5057497;28;19915;-58
2022/05/09 06:31:24;;;;;;;;;;;14.70;75.30;;;;;;5057376;28;19927;-58
2022/05/09 06:33:50;;;;;;;;;;;14.80;75.40;;;;;;5057259;28;19905;-58
2022/05/09 06:36:15;;;;;;;;;;;14.80;75.70;;;;;;5057389;28;19911;-58
2022/05/09 06:38:41;;;;;;;;;;;14.90;74.60;;;;;;5057385;28;19905;-58
2022/05/09 06:41:10;;;;;;;;;;;15.00;76.20;;;;;;5057396;28;19904;-58
2022/05/09 06:43:36;;;;;;;;;;;15.10;75.60;;;;;;5057212;28;19905;-58
2022/05/09 06:46:02;;;;;;;;;;;15.20;74.60;;;;;;5057176;28;19948;-58
2022/05/09 06:48:28;;;;;;;;;;;15.30;76.20;;;;;;5057316;28;19959;-58
2022/05/09 06:50:54;;;;;;;;;;;15.30;75.80;;;;;;5057310;28;19970;-58
2022/05/09 06:53:20;;;;;;;;;;;15.40;74.20;;;;;;5057035;28;19909;-57
2022/05/09 06:55:46;;;;;;;;;;;15.50;75.20;;;;;;5057904;28;20672;-57
2022/05/09 06:58:14;;;;;;;;;;;15.60;76.00;;;;;;5058584;28;19905;-58
2022/05/09 07:00:39;;;;;;;;;;;15.60;73.80;;;;;;5060234;28;19975;-58
2022/05/09 07:03:05;;;;;;;;;;;15.70;74.30;;;;;;5060770;28;20334;-57
2022/05/09 07:05:31;;;;;;;;;;;15.80;75.20;;;;;;5060459;28;20471;-57
2022/05/09 07:07:57;;;;;;;;;;;15.90;73.70;;;;;;5059047;28;19905;-58
2022/05/09 07:10:23;;;;;;;;;;;15.90;73.30;;;;;;5060805;28;19905;-58
2022/05/09 07:12:50;;;;;;;;;;;16.00;73.70;;;;;;5059976;28;19909;-57
2022/05/09 07:15:18;;;;;;;;;;;16.00;73.90;;;;;;5060185;28;20028;-58
2022/05/09 07:17:45;;;;;;;;;;;16.10;75.80;;;;;;5060092;28;19905;-58
2022/05/09 07:20:11;;;;;;;;;;;16.20;74.10;;;;;;5060319;28;19905;-58
2022/05/09 07:22:37;;;;;;;;;;;16.20;72.70;;;;;;5060298;28;19916;-58
2022/05/09 07:25:03;;;;;;;;;;;16.30;72.70;;;;;;5057628;28;19904;-58
2022/05/09 07:27:30;;;;;;;;;;;16.30;73.80;;;;;;5059091;28;19934;-58
2022/05/09 07:29:56;;;;;;;;;;;16.40;74.50;;;;;;5060040;28;19994;-58
2022/05/09 07:32:21;;;;;;;;;;;16.50;73.20;;;;;;5060116;28;20368;-58
2022/05/09 07:34:48;;;;;;;;;;;16.60;72.90;;;;;;5059744;28;19908;-58
2022/05/09 07:37:15;;;;;;;;;;;16.70;72.90;;;;;;5059768;28;20322;-58
2022/05/09 07:39:40;;;;;;;;;;;16.80;72.60;;;;;;5059796;28;19905;-58
2022/05/09 07:42:08;;;;;;;;;;;16.80;72.00;;;;;;5059997;28;20241;-58
2022/05/09 07:44:34;;;;;;;;;;;16.90;73.10;;;;;;5059125;28;20360;-58
2022/05/09 07:46:59;;;;;;;;;;;17.00;72.00;;;;;;5058048;28;19927;-58
2022/05/09 07:49:25;;;;;;;;;;;17.10;71.70;;;;;;5057945;28;19905;-58
2022/05/09 07:51:50;;;;;;;;;;;17.20;72.00;;;;;;5059633;28;19916;-58
2022/05/09 07:54:16;;;;;;;;;;;17.20;71.40;;;;;;5056339;28;19904;-58
2022/05/09 07:56:46;;;;;;;;;;;17.30;71.40;;;;;;5059246;28;19904;-58
2022/05/09 07:59:12;;;;;;;;;;;17.40;71.50;;;;;;5059602;28;19905;-58
2022/05/09 08:01:37;;;;;;;;;;;17.50;71.00;;;;;;5059467;28;20249;-58
2022/05/09 08:04:03;;;;;;;;;;;17.50;69.90;;;;;;5059336;28;19909;-58
2022/05/09 08:06:29;;;;;;;;;;;17.50;70.00;;;;;;5059484;28;19911;-58
2022/05/09 08:08:54;;;;;;;;;;;17.60;70.50;;;;;;5059072;28;19904;-58
2022/05/09 08:11:21;;;;;;;;;;;17.60;70.00;;;;;;5058640;28;19905;-58
2022/05/09 08:13:47;;;;;;;;;;;17.70;70.50;;;;;;5058849;28;19911;-58
2022/05/09 08:16:13;;;;;;;;;;;17.70;70.20;;;;;;5058845;28;20479;-58
2022/05/09 08:18:40;;;;;;;;;;;17.80;70.30;;;;;;5059084;28;19912;-58
2022/05/09 08:21:06;;;;;;;;;;;17.90;70.30;;;;;;5058460;28;19992;-58
2022/05/09 08:23:32;;;;;;;;;;;17.90;70.30;;;;;;5058451;28;19905;-58
2022/05/09 08:26:02;;;;;;;;;;;18.00;69.70;;;;;;5058782;28;19920;-58
2022/05/09 08:28:28;;;;;;;;;;;18.10;70.00;;;;;;5059706;28;19958;-58
2022/05/09 08:30:55;;;;;;;;;;;18.20;70.20;;;;;;5059068;28;19905;-58
2022/05/09 08:33:24;;;;;;;;;;;18.30;70.10;;;;;;5058746;28;20372;-58
2022/05/09 08:35:51;;;;;;;;;;;18.40;69.90;;;;;;5058869;28;19905;-58
2022/05/09 08:38:17;;;;;;;;;;;18.50;69.70;;;;;;5059483;28;19911;-58
2022/05/09 08:40:53;;;;;;;;;;;18.60;70.00;;;;;;5058755;28;19905;-58
2022/05/09 08:43:34;;;;;;;;;;;18.70;69.50;;;;;;5058779;28;19905;-58
2022/05/09 08:46:20;;;;;;;;;;;18.80;68.80;;;;;;5058650;28;19947;-58
2022/05/09 08:48:45;;;;;;;;;;;18.80;68.60;;;;;;5057442;28;19987;-58
2022/05/09 08:51:11;;;;;;;;;;;18.90;68.50;;;;;;5058046;28;19985;-58
2022/05/09 08:53:40;;;;;;;;;;;18.90;67.40;;;;;;5058436;28;19924;-58
2022/05/09 08:56:07;;;;;;;;;;;19.00;68.10;;;;;;5058371;28;19932;-58
2022/05/09 08:58:41;;;;;;;;;;;19.00;68.10;;;;;;5058331;28;19958;-58
2022/05/09 09:01:18;;;;;;;;;;;19.10;67.70;;;;;;5056705;28;19911;-58
2022/05/09 09:03:54;;;;;;;;;;;19.10;67.40;;;;;;5057839;28;19912;-58
2022/05/09 09:06:20;;;;;;;;;;;19.20;68.00;;;;;;5058128;28;19931;-58
2022/05/09 09:08:52;;;;;;;;;;;19.30;67.20;;;;;;5057924;28;19905;-58
2022/05/09 09:11:22;;;;;;;;;;;19.40;67.30;;;;;;5057768;28;19909;-58
2022/05/09 09:13:50;;;;;;;;;;;19.50;67.70;;;;;;5057888;28;19905;-58
2022/05/09 09:16:43;;;;;;;;;;;19.60;67.50;;;;;;5057849;28;20323;-58
2022/05/09 09:19:20;;;;;;;;;;;19.70;67.70;;;;;;5058000;28;20283;-58
2022/05/09 09:21:55;;;;;;;;;;;19.80;67.00;;;;;;5057342;28;19905;-58
2022/05/09 09:24:32;;;;;;;;;;;19.90;66.60;;;;;;5057724;28;19905;-58
2022/05/09 09:27:13;;;;;;;;;;;20.00;66.30;;;;;;5057371;28;19927;-58
2022/05/09 09:29:47;;;;;;;;;;;20.20;65.90;;;;;;5057528;28;19905;-58
2022/05/09 09:32:18;;;;;;;;;;;20.30;65.60;;;;;;5057275;28;19909;-58
2022/05/09 09:34:50;;;;;;;;;;;20.40;66.10;;;;;;5057460;28;20356;-58
2022/05/09 09:37:21;;;;;;;;;;;20.60;66.00;;;;;;5057849;28;19904;-58
2022/05/09 09:39:47;;;;;;;;;;;20.70;65.20;;;;;;5057582;28;19995;-59
2022/05/09 09:42:12;;;;;;;;;;;20.90;66.00;;;;;;5057701;28;19939;-58
2022/05/09 09:44:40;;;;;;;;;;;21.00;64.90;;;;;;5057527;28;19908;-58
2022/05/09 09:47:25;;;;;;;;;;;21.10;64.20;;;;;;5057570;28;19905;-58
2022/05/09 09:50:12;;;;;;;;;;;21.30;64.10;;;;;;5057469;28;19912;-58
2022/05/09 09:52:57;;;;;;;;;;;21.50;65.00;;;;;;5056601;28;19912;-58
2022/05/09 09:55:25;;;;;;;;;;;21.80;64.10;;;;;;5057622;28;19983;-58
2022/05/09 09:57:51;;;;;;;;;;;22.00;63.80;;;;;;5057717;28;19951;-59
2022/05/09 10:00:19;;;;;;;;;;;22.20;63.90;;;;;;5057345;28;19904;-58
2022/05/09 10:02:48;;;;;;;;;;;22.30;63.30;;;;;;5057265;28;19905;-58
2022/05/09 10:05:15;;;;;;;;;;;22.60;64.10;;;;;;5057528;28;19904;-58
2022/05/09 10:07:44;;;;;;;;;;;22.90;63.80;;;;;;5055978;28;19979;-58
2022/05/09 10:10:12;;;;;;;;;;;23.20;62.00;;;;;;5057329;28;19944;-59
2022/05/09 10:12:39;;;;;;;;;;;23.40;57.50;;;;;;5058236;28;19913;-59
2022/05/09 10:15:34;;;;;;;;;;;23.50;60.90;;;;;;5057548;28;20388;-59
2022/05/09 10:18:15;;;;;;;;;;;23.70;58.60;;;;;;5056509;28;19911;-59
2022/05/09 10:20:40;;;;;;;;;;;23.80;56.90;;;;;;5057642;28;19905;-59
2022/05/09 10:26:16;;;;;;;;;;;24.40;59.10;;;;;;5057322;28;19939;-59
2022/05/09 10:28:46;;;;;;;;;;;24.50;57.00;;;;;;5057361;28;20391;-59
2022/05/09 10:31:23;;;;;;;;;;;24.60;59.10;;;;;;5057073;28;19904;-59
2022/05/09 10:33:58;;;;;;;;;;;24.70;59.00;;;;;;5061222;28;19909;-59
2022/05/09 10:36:26;;;;;;;;;;;24.80;60.40;;;;;;5060879;28;19904;-59
2022/05/09 10:38:58;;;;;;;;;;;25.10;57.30;;;;;;5061019;28;19905;-59
2022/05/09 10:41:43;;;;;;;;;;;25.50;60.00;;;;;;5060519;28;19905;-59
2022/05/09 10:44:10;;;;;;;;;;;25.60;58.50;;;;;;5060746;28;19905;-59
2022/05/09 10:46:47;;;;;;;;;;;25.80;51.70;;;;;;5061240;28;19904;-59
2022/05/09 10:49:21;;;;;;;;;;;25.80;56.40;;;;;;5061120;28;19991;-59
2022/05/09 10:51:53;;;;;;;;;;;25.80;55.10;;;;;;5060972;28;19908;-59
2022/05/09 10:54:37;;;;;;;;;;;25.80;50.80;;;;;;5060818;28;19908;-59
2022/05/09 10:57:14;;;;;;;;;;;25.80;52.20;;;;;;5061171;28;19912;-59
2022/05/09 10:59:41;;;;;;;;;;;25.60;50.30;;;;;;5061004;28;19940;-59
2022/05/09 11:02:14;;;;;;;;;;;25.60;48.20;;;;;;5060906;28;20285;-59
2022/05/09 11:04:40;;;;;;;;;;;25.60;52.20;;;;;;5061256;28;20341;-59
2022/05/09 11:07:07;;;;;;;;;;;25.80;52.60;;;;;;5060806;28;20320;-59
2022/05/09 11:09:33;;;;;;;;;;;26.20;51.70;;;;;;5060546;28;19970;-59
2022/05/09 11:12:17;;;;;;;;;;;26.40;48.80;;;;;;5060805;28;19909;-59
2022/05/09 11:15:01;;;;;;;;;;;26.50;50.30;;;;;;5060642;28;19927;-59
2022/05/09 11:17:45;;;;;;;;;;;26.70;52.30;;;;;;5060756;28;19913;-59
2022/05/09 11:20:29;;;;;;;;;;;27.00;47.40;;;;;;5060466;28;19991;-59
2022/05/09 11:22:58;;;;;;;;;;;26.50;46.70;;;;;;5060483;28;19912;-59
2022/05/09 11:25:32;;;;;;;;;;;26.40;46.60;;;;;;5060416;28;19967;-59
2022/05/09 11:28:04;;;;;;;;;;;26.20;49.40;;;;;;5060597;28;19917;-59
2022/05/09 11:30:30;;;;;;;;;;;26.30;50.20;;;;;;5060344;28;19904;-59
2022/05/09 11:33:07;;;;;;;;;;;26.40;51.20;;;;;;5060213;28;19915;-59
2022/05/09 11:35:34;;;;;;;;;;;26.40;46.80;;;;;;5058512;28;19912;-59
2022/05/09 11:38:18;;;;;;;;;;;26.70;48.70;;;;;;5058581;28;20287;-59
2022/05/09 11:41:00;;;;;;;;;;;26.60;48.90;;;;;;5058735;28;19905;-59
2022/05/09 11:43:28;;;;;;;;;;;26.50;49.00;;;;;;5059051;28;20400;-59
2022/05/09 11:46:00;;;;;;;;;;;26.70;49.80;;;;;;5060228;28;19905;-59
2022/05/09 11:48:25;;;;;;;;;;;26.70;45.80;;;;;;5059641;28;19904;-59
2022/05/09 11:50:54;;;;;;;;;;;26.30;45.50;;;;;;5059943;28;20003;-59
2022/05/09 11:53:23;;;;;;;;;;;26.20;46.70;;;;;;5059494;28;19915;-59
2022/05/09 11:55:49;;;;;;;;;;;26.20;47.90;;;;;;5059578;28;19905;-59
2022/05/09 11:58:15;;;;;;;;;;;26.40;47.50;;;;;;5059337;28;19905;-59
2022/05/09 12:00:41;;;;;;;;;;;26.30;47.50;;;;;;5059696;28;19991;-59
2022/05/09 12:03:09;;;;;;;;;;;26.30;48.70;;;;;;5059485;28;19905;-59
2022/05/09 12:05:35;;;;;;;;;;;26.40;47.90;;;;;;5059532;28;20042;-59
2022/05/09 12:08:05;;;;;;;;;;;26.60;48.50;;;;;;5059267;28;19931;-59
2022/05/09 12:10:35;;;;;;;;;;;26.50;49.00;;;;;;5059651;28;19905;-59
2022/05/09 12:13:10;;;;;;;;;;;26.40;47.60;;;;;;5059253;28;20455;-59
2022/05/09 12:15:36;;;;;;;;;;;26.50;47.70;;;;;;5058359;28;19904;-59
2022/05/09 12:18:07;;;;;;;;;;;26.10;45.80;;;;;;5058217;28;19936;-59
2022/05/09 12:20:36;;;;;;;;;;;26.10;48.00;;;;;;5057705;28;19904;-59
2022/05/09 12:23:25;;;;;;;;;;;26.20;49.30;;;;;;5059129;28;20372;-59
2022/05/09 12:25:59;;;;;;;;;;;26.30;46.70;;;;;;5057494;28;19960;-59
2022/05/09 12:28:30;;;;;;;;;;;26.80;48.80;;;;;;5058930;28;20364;-58
2022/05/09 12:31:18;;;;;;;;;;;26.90;48.00;;;;;;5059272;28;19904;-59
2022/05/09 12:33:47;;;;;;;;;;;27.20;48.10;;;;;;5057909;28;19932;-59
2022/05/09 12:36:24;;;;;;;;;;;27.70;48.70;;;;;;5059097;28;19904;-59
2022/05/09 12:38:51;;;;;;;;;;;27.70;46.60;;;;;;5059148;28;19905;-59
2022/05/09 12:41:19;;;;;;;;;;;27.50;45.70;;;;;;5058985;28;19905;-59
2022/05/09 12:43:54;;;;;;;;;;;27.50;46.70;;;;;;5059393;28;19904;-59
2022/05/09 12:46:22;;;;;;;;;;;27.80;46.40;;;;;;5058876;28;19904;-58
2022/05/09 12:48:48;;;;;;;;;;;27.50;44.50;;;;;;5057456;28;20292;-59
2022/05/09 12:51:14;;;;;;;;;;;27.40;47.40;;;;;;5057667;28;19904;-59
2022/05/09 12:53:40;;;;;;;;;;;27.20;45.70;;;;;;5058622;28;19915;-58
2022/05/09 12:56:14;;;;;;;;;;;26.70;44.80;;;;;;5057756;28;19904;-58
2022/05/09 12:58:41;;;;;;;;;;;26.80;45.90;;;;;;5059043;28;20434;-58
2022/05/09 13:01:17;;;;;;;;;;;26.60;45.50;;;;;;5059104;28;19912;-58
2022/05/09 13:03:44;;;;;;;;;;;26.70;46.30;;;;;;5058771;28;19904;-59
2022/05/09 13:06:15;;;;;;;;;;;26.20;46.30;;;;;;5058857;28;19976;-59
2022/05/09 13:08:41;;;;;;;;;;;26.00;47.90;;;;;;5058722;28;19904;-59
2022/05/09 13:11:15;;;;;;;;;;;26.30;48.40;;;;;;5058903;28;19905;-59
2022/05/09 13:13:59;;;;;;;;;;;26.80;47.70;;;;;;5058111;28;19909;-59
2022/05/09 13:16:28;;;;;;;;;;;27.10;47.80;;;;;;5058590;28;19905;-59
2022/05/09 13:18:55;;;;;;;;;;;27.20;45.30;;;;;;5058526;28;19905;-59
2022/05/09 13:21:23;;;;;;;;;;;26.80;45.90;;;;;;5058355;28;19911;-59
2022/05/09 13:23:50;;;;;;;;;;;26.60;46.40;;;;;;5058691;28;19912;-59
2022/05/09 13:26:17;;;;;;;;;;;26.20;46.50;;;;;;5058245;28;19923;-59
2022/05/09 13:28:47;;;;;;;;;;;26.00;48.00;;;;;;5058410;28;19946;-59
2022/05/09 13:31:24;;;;;;;;;;;25.90;47.10;;;;;;5058228;28;19905;-59
2022/05/09 13:33:50;;;;;;;;;;;25.80;48.30;;;;;;5057192;28;19915;-59
2022/05/09 13:36:20;;;;;;;;;;;25.80;48.00;;;;;;5057296;28;19905;-59
2022/05/09 13:38:47;;;;;;;;;;;25.60;48.10;;;;;;5057473;28;20343;-59
2022/05/09 13:41:18;;;;;;;;;;;25.40;49.10;;;;;;5057507;28;19905;-59
2022/05/09 13:43:49;;;;;;;;;;;25.20;49.10;;;;;;5057924;28;19989;-59
2022/05/09 13:46:18;;;;;;;;;;;24.90;49.40;;;;;;5057607;28;20321;-59
2022/05/09 13:48:48;;;;;;;;;;;24.80;50.90;;;;;;5057641;28;19959;-59
2022/05/09 13:51:15;;;;;;;;;;;24.70;50.70;;;;;;5057140;28;19904;-59
2022/05/09 13:53:45;;;;;;;;;;;24.40;50.60;;;;;;5057505;28;19964;-59
2022/05/09 13:56:13;;;;;;;;;;;24.40;50.90;;;;;;5057421;28;19912;-59
2022/05/09 13:58:39;;;;;;;;;;;24.50;50.70;;;;;;5057475;28;19958;-59
2022/05/09 14:01:06;;;;;;;;;;;24.30;51.30;;;;;;5057547;28;20033;-59
2022/05/09 14:03:37;;;;;;;;;;;24.20;51.60;;;;;;5057410;28;19904;-59
2022/05/09 14:06:15;;;;;;;;;;;24.10;51.70;;;;;;5057011;28;19967;-59
2022/05/09 14:08:41;;;;;;;;;;;24.10;53.20;;;;;;5061376;28;20237;-59
2022/05/09 14:11:09;;;;;;;;;;;24.10;52.50;;;;;;5061358;28;19904;-59
2022/05/09 14:13:48;;;;;;;;;;;24.10;52.30;;;;;;5060887;28;20437;-59
2022/05/09 14:16:18;;;;;;;;;;;24.10;52.50;;;;;;5061305;28;19916;-59
2022/05/09 14:18:47;;;;;;;;;;;24.00;52.30;;;;;;5061314;28;19909;-59
2022/05/09 14:21:14;;;;;;;;;;;24.00;52.70;;;;;;5061258;28;19912;-59
2022/05/09 14:23:45;;;;;;;;;;;23.80;52.80;;;;;;5061211;28;19905;-59
2022/05/09 14:31:52;;;;;;;;;;;23.50;53.60;;;;;;5060854;28;19920;-59
2022/05/09 14:34:21;;;;;;;;;;;23.50;53.80;;;;;;5060734;28;19950;-59
2022/05/09 14:36:47;;;;;;;;;;;23.60;53.90;;;;;;5060899;28;19905;-59
2022/05/09 14:39:29;;;;;;;;;;;23.50;54.30;;;;;;5060601;28;20597;-59
2022/05/09 14:42:12;;;;;;;;;;;23.30;54.50;;;;;;5060809;28;19908;-59